createdAt,value
2024-02-01T00:02:25.140Z,1.55
2024-02-01T00:04:53.678Z,1.58
2024-02-01T00:07:22.347Z,1.48
2024-02-01T00:09:50.813Z,1.80
2024-02-01T00:12:19.270Z,1.92
2024-02-01T00:14:47.787Z,1.35
2024-02-01T00:17:16.231Z,1.80
2024-02-01T00:19:44.679Z,1.75
2024-02-01T00:22:19.754Z,1.60
2024-02-01T00:24:56.429Z,1.70
2024-02-01T00:27:24.747Z,1.80
2024-02-01T00:29:53.199Z,1.70
2024-02-01T00:32:21.540Z,1.77
2024-02-01T00:34:50.171Z,1.70
2024-02-01T00:37:18.997Z,1.40
2024-02-01T00:39:47.407Z,2.05
2024-02-01T00:42:15.914Z,1.80
2024-02-01T00:44:44.368Z,2.00
2024-02-01T00:47:12.749Z,1.60
2024-02-01T00:49:41.211Z,1.65
2024-02-01T00:52:11.044Z,1.50
2024-02-01T00:54:40.650Z,1.50
2024-02-01T00:57:09.174Z,1.60
2024-02-01T00:59:37.713Z,1.20
2024-02-01T01:02:06.441Z,1.65
2024-02-01T01:04:35.082Z,1.30
2024-02-01T01:07:03.450Z,1.42
2024-02-01T01:09:31.844Z,1.60
2024-02-01T01:12:00.315Z,1.63
2024-02-01T01:14:28.789Z,1.20
2024-02-01T01:16:57.277Z,1.45
2024-02-01T01:19:25.829Z,1.45
2024-02-01T01:21:54.266Z,1.08
2024-02-01T01:24:22.702Z,1.30
2024-02-01T01:26:51.174Z,1.20
2024-02-01T01:29:19.654Z,1.27
2024-02-01T01:31:48.846Z,1.00
2024-02-01T01:34:17.489Z,1.30
2024-02-01T01:36:45.934Z,1.30
2024-02-01T01:39:14.529Z,1.15
2024-02-01T01:41:47.476Z,1.40
2024-02-01T01:44:16.152Z,1.20
2024-02-01T01:46:45.003Z,1.33
2024-02-01T01:49:14.501Z,1.20
2024-02-01T01:51:43.088Z,1.42
2024-02-01T01:54:12.088Z,1.35
2024-02-01T01:56:42.212Z,1.40
2024-02-01T01:59:14.425Z,1.15
2024-02-01T02:01:49.544Z,1.67
2024-02-01T02:04:18.184Z,1.42
2024-02-01T02:06:46.847Z,0.93
2024-02-01T02:09:15.715Z,1.73
2024-02-01T02:11:48.357Z,1.45
2024-02-01T02:14:17.969Z,1.17
2024-02-01T02:16:46.761Z,1.20
2024-02-01T02:19:15.360Z,1.17
2024-02-01T02:21:49.811Z,1.15
2024-02-01T02:24:19.742Z,1.33
2024-02-01T02:26:49.985Z,1.10
2024-02-01T02:29:19.154Z,1.20
2024-02-01T02:31:50.082Z,1.20
2024-02-01T02:34:18.796Z,1.40
2024-02-01T02:36:49.003Z,1.17
2024-02-01T02:39:17.486Z,1.75
2024-02-01T02:41:45.942Z,1.15
2024-02-01T02:44:15.669Z,1.40
2024-02-01T02:46:44.107Z,1.30
2024-02-01T02:49:12.813Z,1.20
2024-02-01T02:51:41.790Z,1.55
2024-02-01T02:54:13.173Z,1.30
2024-02-01T02:56:42.271Z,1.10
2024-02-01T02:59:10.896Z,1.30
2024-02-01T03:01:39.296Z,1.13
2024-02-01T03:04:10.246Z,1.08
2024-02-01T03:06:39.079Z,1.20
2024-02-01T03:09:11.829Z,1.00
2024-02-01T03:11:40.494Z,1.13
2024-02-01T03:14:13.211Z,1.30
2024-02-01T03:16:42.027Z,1.00
2024-02-01T03:19:13.594Z,1.20
2024-02-01T03:21:42.441Z,1.20
2024-02-01T03:24:11.112Z,1.63
2024-02-01T03:26:39.656Z,1.20
2024-02-01T03:29:08.034Z,1.05
2024-02-01T03:31:36.440Z,1.17
2024-02-01T03:34:12.784Z,1.67
2024-02-01T03:36:41.530Z,1.27
2024-02-01T03:39:25.285Z,1.00
2024-02-01T03:41:56.351Z,1.20
2024-02-01T03:44:25.739Z,1.05
2024-02-01T03:46:56.063Z,1.35
2024-02-01T03:49:24.597Z,1.17
2024-02-01T03:51:53.002Z,1.10
2024-02-01T03:54:21.412Z,1.33
2024-02-01T03:56:49.760Z,1.20
2024-02-01T03:59:18.592Z,1.42
2024-02-01T04:01:48.089Z,1.20
2024-02-01T04:04:20.264Z,1.52
2024-02-01T04:06:53.848Z,1.40
2024-02-01T04:09:22.764Z,1.33
2024-02-01T04:11:51.249Z,1.52
2024-02-01T04:14:19.662Z,1.40
2024-02-01T04:16:49.424Z,1.30
2024-02-01T04:19:18.045Z,1.25
2024-02-01T04:21:52.763Z,1.40
2024-02-01T04:26:50.126Z,1.30
2024-02-01T04:29:18.483Z,1.25
2024-02-01T04:31:47.231Z,1.83
2024-02-01T04:34:17.459Z,1.20
2024-02-01T04:36:47.148Z,1.17
2024-02-01T04:39:15.704Z,1.27
2024-02-01T04:41:45.793Z,1.40
2024-02-01T04:44:14.294Z,1.40
2024-02-01T04:46:42.757Z,1.50
2024-02-01T04:49:14.692Z,1.40
2024-02-01T04:51:44.393Z,1.42
2024-02-01T04:54:12.875Z,1.50
2024-02-01T04:56:42.353Z,1.50
2024-02-01T04:59:10.771Z,1.30
2024-02-01T05:01:39.191Z,1.10
2024-02-01T05:04:15.439Z,1.20
2024-02-01T05:06:44.513Z,0.77
2024-02-01T05:09:33.318Z,1.05
2024-02-01T05:12:02.085Z,0.90
2024-02-01T05:14:31.105Z,0.90
2024-02-01T05:16:59.546Z,0.90
2024-02-01T05:19:28.368Z,0.63
2024-02-01T05:21:57.660Z,0.82
2024-02-01T05:24:26.908Z,1.00
2024-02-01T05:26:55.916Z,1.15
2024-02-01T05:29:25.946Z,0.73
2024-02-01T05:31:56.264Z,0.70
2024-02-01T05:34:28.161Z,0.70
2024-02-01T05:36:56.645Z,0.85
2024-02-01T05:39:28.082Z,1.00
2024-02-01T05:41:57.225Z,0.93
2024-02-01T05:44:27.193Z,1.08
2024-02-01T05:46:57.721Z,1.08
2024-02-01T05:49:32.186Z,0.90
2024-02-01T05:54:35.752Z,1.10
2024-02-01T05:57:07.364Z,1.15
2024-02-01T05:59:35.762Z,1.00
2024-02-01T06:02:07.509Z,0.82
2024-02-01T06:04:36.171Z,1.20
2024-02-01T06:07:06.758Z,0.77
2024-02-01T06:09:35.475Z,1.20
2024-02-01T06:12:03.864Z,1.13
2024-02-01T06:14:32.336Z,1.23
2024-02-01T06:17:00.649Z,1.10
2024-02-01T06:19:29.260Z,1.77
2024-02-01T06:21:57.850Z,2.00
2024-02-01T06:24:26.252Z,1.45
2024-02-01T06:26:56.965Z,1.30
2024-02-01T06:29:25.361Z,1.38
2024-02-01T06:31:53.865Z,1.70
2024-02-01T06:34:40.333Z,2.00
2024-02-01T06:37:10.969Z,1.40
2024-02-01T06:39:40.561Z,1.52
2024-02-01T06:42:27.121Z,1.70
2024-02-01T06:45:15.434Z,1.63
2024-02-01T06:47:51.251Z,1.60
2024-02-01T06:50:36.730Z,1.55
2024-02-01T06:53:11.119Z,2.17
2024-02-01T06:55:45.943Z,1.90
2024-02-01T06:58:19.918Z,2.28
2024-02-01T07:00:49.296Z,1.58
2024-02-01T07:03:27.747Z,1.70
2024-02-01T07:05:56.401Z,1.88
2024-02-01T07:08:34.362Z,1.40
2024-02-01T07:11:23.243Z,1.35
2024-02-01T07:13:54.368Z,1.50
2024-02-01T07:16:26.561Z,1.50
2024-02-01T07:19:25.582Z,1.45
2024-02-01T07:22:08.353Z,1.45
2024-02-01T07:24:49.905Z,1.60
2024-02-01T07:27:37.158Z,1.60
2024-02-01T07:30:24.238Z,1.45
2024-02-01T07:33:11.061Z,1.80
2024-02-01T07:35:57.830Z,1.90
2024-02-01T07:38:44.730Z,1.75
2024-02-01T07:41:51.155Z,1.70
2024-02-01T07:44:37.603Z,1.17
2024-02-01T07:47:24.567Z,1.50
2024-02-01T07:50:11.304Z,1.20
2024-02-01T07:52:57.972Z,1.17
2024-02-01T07:55:44.519Z,1.50
2024-02-01T07:58:16.936Z,1.35
2024-02-01T08:00:48.182Z,1.08
2024-02-01T08:03:29.110Z,1.27
2024-02-01T08:06:16.076Z,1.30
2024-02-01T08:08:45.578Z,1.10
2024-02-01T08:11:22.817Z,1.27
2024-02-01T08:13:51.597Z,1.30
2024-02-01T08:16:20.661Z,0.90
2024-02-01T08:18:49.266Z,1.50
2024-02-01T08:21:18.889Z,0.93
2024-02-01T08:23:47.342Z,0.80
2024-02-01T08:26:18.020Z,0.70
2024-02-01T08:28:46.412Z,0.60
2024-02-01T08:31:19.597Z,0.70
2024-02-01T08:33:49.018Z,0.70
2024-02-01T08:36:22.306Z,0.30
2024-02-01T08:38:50.760Z,0.57
2024-02-01T08:41:19.132Z,0.50
2024-02-01T08:43:47.822Z,0.50
2024-02-01T08:46:16.196Z,0.70
2024-02-01T08:48:46.437Z,0.80
2024-02-01T08:51:14.990Z,0.70
2024-02-01T08:53:45.483Z,0.50
2024-02-01T08:56:16.493Z,0.50
2024-02-01T08:58:45.844Z,0.60
2024-02-01T09:01:24.929Z,0.43
2024-02-01T09:03:53.655Z,0.47
2024-02-01T09:06:22.809Z,0.30
2024-02-01T09:08:52.119Z,0.45
2024-02-01T09:11:20.796Z,0.60
2024-02-01T09:13:49.849Z,0.30
2024-02-01T09:16:32.977Z,0.30
2024-02-01T09:19:05.943Z,0.50
2024-02-01T09:21:34.568Z,0.40
2024-02-01T09:24:02.916Z,0.40
2024-02-01T09:26:31.261Z,0.47
2024-02-01T09:28:59.584Z,0.50
2024-02-01T09:31:29.049Z,0.30
2024-02-01T09:33:57.927Z,0.40
2024-02-01T09:36:26.453Z,0.60
2024-02-01T09:38:56.622Z,0.70
2024-02-01T09:41:26.722Z,0.70
2024-02-01T09:43:55.803Z,0.60
2024-02-01T09:46:24.176Z,0.40
2024-02-01T09:48:54.546Z,0.70
2024-02-01T09:51:24.252Z,0.50
2024-02-01T09:53:53.587Z,0.35
2024-02-01T09:56:27.695Z,0.50
2024-02-01T09:58:58.054Z,0.77
2024-02-01T10:01:27.133Z,0.50
2024-02-01T10:03:56.293Z,0.40
2024-02-01T10:06:25.752Z,0.45
2024-02-01T10:08:55.695Z,0.40
2024-02-01T10:11:25.080Z,0.40
2024-02-01T10:13:53.533Z,0.30
2024-02-01T10:16:24.772Z,0.47
2024-02-01T10:18:56.343Z,0.50
2024-02-01T10:21:32.573Z,0.40
2024-02-01T10:24:09.921Z,0.90
2024-02-01T10:26:39.102Z,0.40
2024-02-01T10:29:09.036Z,0.50
2024-02-01T10:31:45.624Z,0.65
2024-02-01T10:34:17.439Z,0.40
2024-02-01T10:36:48.724Z,0.50
2024-02-01T10:39:26.216Z,0.60
2024-02-01T10:42:05.461Z,0.60
2024-02-01T10:44:40.849Z,0.50
2024-02-01T10:47:17.127Z,0.60
2024-02-01T10:49:59.002Z,0.63
2024-02-01T10:52:29.353Z,0.60
2024-02-01T10:54:58.547Z,0.60
2024-02-01T10:57:28.214Z,0.57
2024-02-01T10:59:58.643Z,0.60
2024-02-01T11:02:29.354Z,0.60
2024-02-01T11:04:57.752Z,0.63
2024-02-01T11:07:27.005Z,0.52
2024-02-01T11:09:55.676Z,0.73
2024-02-01T11:12:27.373Z,0.52
2024-02-01T11:14:55.968Z,0.60
2024-02-01T11:17:28.450Z,0.60
2024-02-01T11:19:58.201Z,0.68
2024-02-01T11:22:30.943Z,0.95
2024-02-01T11:25:08.750Z,1.58
2024-02-01T11:27:39.103Z,1.50
2024-02-01T11:30:24.060Z,1.50
2024-02-01T11:35:24.899Z,1.92
2024-02-01T11:38:03.474Z,1.77
2024-02-01T11:40:31.890Z,1.80
2024-02-01T11:43:01.446Z,2.10
2024-02-01T11:45:30.036Z,1.70
2024-02-01T11:47:59.475Z,2.33
2024-02-01T11:50:28.917Z,1.90
2024-02-01T11:53:10.183Z,1.60
2024-02-01T11:55:41.372Z,1.30
2024-02-01T11:58:14.229Z,1.20
2024-02-01T12:00:56.774Z,1.35
2024-02-01T12:03:35.231Z,1.30
2024-02-01T12:06:03.777Z,1.30
2024-02-01T12:08:35.016Z,1.42
2024-02-01T12:11:03.887Z,1.92
2024-02-01T12:13:32.227Z,1.50
2024-02-01T12:16:00.525Z,1.90
2024-02-01T12:18:33.435Z,1.45
2024-02-01T12:21:02.338Z,1.50
2024-02-01T12:23:36.664Z,1.40
2024-02-01T12:26:06.768Z,1.50
2024-02-01T12:28:35.436Z,1.40
2024-02-01T12:31:06.681Z,1.10
2024-02-01T12:33:35.759Z,1.42
2024-02-01T12:36:04.359Z,1.40
2024-02-01T12:38:43.331Z,1.35
2024-02-01T12:41:13.684Z,1.70
2024-02-01T12:43:42.504Z,1.60
2024-02-01T12:46:14.123Z,1.35
2024-02-01T12:48:43.642Z,1.50
2024-02-01T12:51:12.050Z,1.50
2024-02-01T12:53:40.939Z,1.30
2024-02-01T12:56:11.520Z,1.20
2024-02-01T12:58:42.272Z,1.45
2024-02-01T13:01:10.765Z,1.20
2024-02-01T13:03:39.253Z,1.40
2024-02-01T13:06:08.011Z,1.08
2024-02-01T13:08:41.398Z,0.98
2024-02-01T13:11:10.845Z,0.85
2024-02-01T13:13:42.158Z,1.10
2024-02-01T13:16:10.529Z,0.80
2024-02-01T13:18:39.323Z,0.82
2024-02-01T13:21:07.845Z,0.73
2024-02-01T13:23:36.165Z,0.60
2024-02-01T13:26:07.082Z,0.63
2024-02-01T13:28:37.032Z,0.82
2024-02-01T13:31:05.535Z,0.85
2024-02-01T13:33:37.797Z,0.75
2024-02-01T13:36:11.014Z,0.73
2024-02-01T13:38:39.758Z,0.50
2024-02-01T13:41:08.195Z,0.80
2024-02-01T13:43:36.631Z,0.80
2024-02-01T13:46:05.122Z,1.10
2024-02-01T13:48:33.802Z,0.73
2024-02-01T13:51:05.559Z,0.70
2024-02-01T13:53:33.967Z,0.75
2024-02-01T13:56:02.395Z,0.88
2024-02-01T13:58:32.428Z,0.80
2024-02-01T14:01:00.856Z,0.80
2024-02-01T14:03:29.519Z,0.88
2024-02-01T14:05:58.275Z,0.82
2024-02-01T14:08:26.999Z,0.82
2024-02-01T14:10:55.724Z,1.02
2024-02-01T14:13:24.063Z,0.90
2024-02-01T14:15:52.424Z,1.02
2024-02-01T14:18:20.822Z,1.17
2024-02-01T14:20:51.261Z,1.27
2024-02-01T14:23:20.006Z,1.25
2024-02-01T14:25:48.828Z,1.10
2024-02-01T14:28:17.140Z,1.55
2024-02-01T14:30:45.534Z,1.20
2024-02-01T14:33:14.100Z,1.60
2024-02-01T14:35:42.895Z,1.30
2024-02-01T14:38:11.301Z,1.60
2024-02-01T14:40:39.824Z,1.60
2024-02-01T14:43:08.268Z,1.60
2024-02-01T14:45:36.622Z,1.52
2024-02-01T14:48:05.441Z,1.52
2024-02-01T14:50:33.842Z,1.67
2024-02-01T14:53:02.289Z,1.88
2024-02-01T14:55:32.277Z,1.80
2024-02-01T14:58:00.621Z,2.00
2024-02-01T15:00:29.088Z,1.95
2024-02-01T15:03:00.829Z,1.80
2024-02-01T15:05:29.492Z,2.00
2024-02-01T15:08:00.439Z,1.88
2024-02-01T15:10:29.116Z,1.83
2024-02-01T15:12:57.477Z,2.05
2024-02-01T15:15:25.940Z,2.10
2024-02-01T15:17:54.436Z,1.77
2024-02-01T15:20:36.199Z,2.10
2024-02-01T15:23:05.765Z,1.90
2024-02-01T15:25:41.933Z,2.20
2024-02-01T15:28:15.175Z,2.00
2024-02-01T15:30:50.354Z,2.33
2024-02-01T15:33:22.695Z,2.20
2024-02-01T15:35:54.511Z,2.00
2024-02-01T15:38:23.680Z,2.10
2024-02-01T15:40:52.327Z,1.95
2024-02-01T15:43:20.665Z,2.10
2024-02-01T15:45:51.849Z,2.00
2024-02-01T15:48:20.794Z,1.60
2024-02-01T15:50:50.582Z,1.80
2024-02-01T15:53:20.857Z,2.00
2024-02-01T15:55:49.864Z,1.80
2024-02-01T15:58:18.393Z,2.00
2024-02-01T16:00:46.786Z,1.90
2024-02-01T16:03:15.756Z,1.80
2024-02-01T16:05:53.422Z,1.80
2024-02-01T16:08:22.672Z,1.52
2024-02-01T16:11:00.931Z,1.60
2024-02-01T16:13:50.688Z,1.88
2024-02-01T16:16:38.266Z,2.17
2024-02-01T16:19:21.779Z,2.08
2024-02-01T16:21:51.288Z,2.40
2024-02-01T16:24:43.820Z,2.15
2024-02-01T16:27:30.847Z,2.30
2024-02-01T16:30:37.141Z,2.20
2024-02-01T16:33:09.630Z,2.40
2024-02-01T16:35:52.248Z,2.30
2024-02-01T16:38:25.798Z,2.20
2024-02-01T16:40:54.629Z,2.30
2024-02-01T16:43:42.228Z,2.30
2024-02-01T16:46:31.576Z,1.95
2024-02-01T16:49:00.956Z,1.90
2024-02-01T16:51:29.680Z,1.58
2024-02-01T16:53:59.176Z,1.70
2024-02-01T16:56:27.510Z,1.58
2024-02-01T16:58:57.135Z,1.60
2024-02-01T17:01:57.849Z,1.60
2024-02-01T17:04:31.689Z,1.20
2024-02-01T17:07:01.115Z,1.20
2024-02-01T17:09:35.295Z,0.90
2024-02-01T17:12:04.307Z,1.13
2024-02-01T17:14:36.141Z,0.98
2024-02-01T17:17:08.802Z,0.95
2024-02-01T17:19:42.782Z,0.70
2024-02-01T17:22:32.676Z,0.75
2024-02-01T17:25:01.266Z,0.80
2024-02-01T17:27:36.986Z,0.90
2024-02-01T17:30:27.308Z,0.88
2024-02-01T17:32:58.503Z,0.93
2024-02-01T17:35:27.533Z,0.82
2024-02-01T17:37:57.798Z,1.00
2024-02-01T17:40:26.332Z,0.70
2024-02-01T17:42:56.019Z,1.00
2024-02-01T17:45:38.464Z,0.77
2024-02-01T17:48:46.151Z,0.95
2024-02-01T17:51:21.957Z,1.13
2024-02-01T17:53:56.704Z,1.40
2024-02-01T17:56:38.368Z,1.10
2024-02-01T17:59:09.294Z,1.15
2024-02-01T18:01:39.991Z,0.98
2024-02-01T18:04:43.788Z,0.85
2024-02-01T18:07:19.756Z,1.10
2024-02-01T18:09:49.463Z,1.30
2024-02-01T18:12:24.606Z,1.48
2024-02-01T18:14:55.900Z,1.50
2024-02-01T18:17:44.846Z,1.58
2024-02-01T18:20:21.018Z,1.30
2024-02-01T18:22:51.445Z,1.10
2024-02-01T18:25:23.912Z,0.95
2024-02-01T18:27:53.865Z,1.08
2024-02-01T18:30:28.310Z,1.10
2024-02-01T18:35:38.732Z,0.80
2024-02-01T18:38:19.643Z,0.82
2024-02-01T18:40:51.327Z,1.00
2024-02-01T18:43:24.521Z,1.20
2024-02-01T18:45:56.772Z,1.00
2024-02-01T18:48:35.696Z,1.23
2024-02-01T18:51:19.481Z,1.00
2024-02-01T18:53:50.554Z,0.80
2024-02-01T18:56:28.008Z,1.20
2024-02-01T18:58:57.171Z,0.90
2024-02-01T19:01:37.090Z,0.60
2024-02-01T19:04:13.170Z,0.90
2024-02-01T19:06:43.637Z,1.65
2024-02-01T19:09:22.116Z,0.90
2024-02-01T19:11:51.419Z,1.20
2024-02-01T19:14:44.689Z,1.25
2024-02-01T19:17:36.161Z,1.40
2024-02-01T19:20:19.174Z,1.20
2024-02-01T19:22:48.281Z,0.90
2024-02-01T19:25:22.654Z,1.10
2024-02-01T19:28:00.308Z,0.98
2024-02-01T19:30:55.621Z,0.80
2024-02-01T19:35:55.578Z,1.10
2024-02-01T19:38:26.893Z,0.77
2024-02-01T19:40:55.416Z,0.93
2024-02-01T19:43:25.170Z,0.75
2024-02-01T19:45:53.534Z,0.73
2024-02-01T19:48:23.296Z,0.75
2024-02-01T19:50:54.275Z,1.10
2024-02-01T19:53:23.295Z,0.85
2024-02-01T19:55:51.719Z,0.93
2024-02-01T19:58:20.111Z,0.90
2024-02-01T20:00:48.484Z,1.02
2024-02-01T20:03:18.071Z,0.98
2024-02-01T20:05:48.282Z,0.90
2024-02-01T20:08:16.683Z,0.80
2024-02-01T20:10:45.325Z,0.80
2024-02-01T20:13:13.836Z,0.47
2024-02-01T20:15:42.865Z,0.80
2024-02-01T20:18:12.664Z,0.82
2024-02-01T20:20:43.328Z,0.60
2024-02-01T20:23:11.833Z,0.68
2024-02-01T20:25:40.421Z,0.63
2024-02-01T20:28:29.717Z,0.68
2024-02-01T20:30:58.195Z,0.68
2024-02-01T20:33:28.074Z,0.75
2024-02-01T20:35:57.698Z,0.85
2024-02-01T20:38:27.268Z,0.90
2024-02-01T20:40:56.717Z,0.95
2024-02-01T20:43:25.828Z,1.00
2024-02-01T20:45:59.423Z,1.08
2024-02-01T20:48:46.500Z,0.88
2024-02-01T20:51:39.378Z,1.30
2024-02-01T20:54:10.261Z,1.05
2024-02-01T20:56:38.665Z,1.23
2024-02-01T20:59:10.061Z,1.33
2024-02-01T21:01:41.068Z,0.98
2024-02-01T21:04:27.381Z,1.00
2024-02-01T21:06:56.242Z,1.20
2024-02-01T21:09:48.319Z,1.20
2024-02-01T21:12:18.199Z,1.17
2024-02-01T21:14:48.965Z,1.20
2024-02-01T21:17:24.532Z,1.25
2024-02-01T21:19:55.131Z,1.35
2024-02-01T21:22:36.147Z,1.67
2024-02-01T21:25:05.985Z,1.48
2024-02-01T21:27:34.645Z,1.38
2024-02-01T21:30:03.586Z,1.17
2024-02-01T21:32:32.117Z,0.90
2024-02-01T21:35:03.604Z,1.10
2024-02-01T21:37:33.329Z,1.10
2024-02-01T21:40:04.526Z,1.05
2024-02-01T21:42:32.837Z,1.42
2024-02-01T21:45:08.019Z,1.30
2024-02-01T21:47:37.028Z,1.13
2024-02-01T21:50:05.657Z,1.50
2024-02-01T21:52:34.026Z,1.67
2024-02-01T21:55:02.412Z,1.60
2024-02-01T21:57:30.787Z,1.70
2024-02-01T21:59:59.648Z,1.55
2024-02-01T22:02:28.363Z,1.35
2024-02-01T22:04:56.800Z,1.92
2024-02-01T22:07:25.921Z,1.55
2024-02-01T22:09:54.321Z,1.67
2024-02-01T22:12:22.809Z,1.42
2024-02-01T22:14:51.237Z,1.67
2024-02-01T22:17:19.712Z,1.73
2024-02-01T22:19:48.337Z,1.27
2024-02-01T22:22:16.826Z,1.42
2024-02-01T22:24:46.593Z,1.60
2024-02-01T22:27:15.470Z,1.75
2024-02-01T22:29:43.898Z,1.50
2024-02-01T22:32:12.712Z,1.70
2024-02-01T22:34:41.283Z,1.70
2024-02-01T22:37:09.906Z,1.55
2024-02-01T22:39:38.292Z,2.03
2024-02-01T22:42:08.990Z,1.58
2024-02-01T22:44:40.468Z,1.58
2024-02-01T22:47:08.802Z,2.05
2024-02-01T22:49:37.418Z,1.48
2024-02-01T22:52:06.203Z,1.73
2024-02-01T22:54:34.796Z,1.45
2024-02-01T22:57:03.241Z,1.70
2024-02-01T22:59:31.681Z,1.98
2024-02-01T23:02:02.063Z,1.33
2024-02-01T23:04:30.753Z,2.13
2024-02-01T23:06:59.243Z,1.30
2024-02-01T23:09:29.731Z,1.33
2024-02-01T23:11:58.194Z,1.55
2024-02-01T23:14:26.595Z,1.65
2024-02-01T23:16:55.003Z,1.67
2024-02-01T23:19:23.890Z,1.23
2024-02-01T23:21:54.787Z,1.40
2024-02-01T23:24:23.648Z,1.52
2024-02-01T23:26:52.095Z,1.40
2024-02-01T23:29:20.505Z,1.63
2024-02-01T23:31:49.299Z,1.48
2024-02-01T23:34:17.809Z,1.40
2024-02-01T23:36:46.667Z,1.70
2024-02-01T23:39:15.131Z,1.42
2024-02-01T23:41:43.659Z,1.45
2024-02-01T23:44:12.028Z,1.65
2024-02-01T23:46:40.532Z,1.40
2024-02-01T23:49:09.100Z,1.88
2024-02-01T23:51:37.807Z,2.10
2024-02-01T23:54:06.267Z,1.30
2024-02-01T23:56:35.020Z,1.70
2024-02-01T23:59:04.221Z,1.48
